createdAt,value
2022-08-03T00:00:29.574Z,4.45
2022-08-03T00:03:39.156Z,4.30
2022-08-03T00:06:41.369Z,4.30
2022-08-03T00:09:43.565Z,4.47
2022-08-03T00:12:45.720Z,4.70
2022-08-03T00:15:47.729Z,4.60
2022-08-03T00:18:49.820Z,4.15
2022-08-03T00:21:51.796Z,4.50
2022-08-03T00:24:54.012Z,4.47
2022-08-03T00:27:56.002Z,4.18
2022-08-03T00:30:58.328Z,4.93
2022-08-03T00:34:03.456Z,4.22
2022-08-03T00:37:05.858Z,4.25
2022-08-03T00:40:08.379Z,5.10
2022-08-03T00:43:11.531Z,5.00
2022-08-03T00:46:17.703Z,5.18
2022-08-03T00:49:24.167Z,5.05
2022-08-03T00:52:26.140Z,5.32
2022-08-03T00:55:28.399Z,5.47
2022-08-03T00:58:30.406Z,5.53
2022-08-03T01:01:32.932Z,5.25
2022-08-03T01:04:35.080Z,5.82
2022-08-03T01:08:01.971Z,6.00
2022-08-03T01:11:15.733Z,4.93
2022-08-03T01:14:27.189Z,5.18
2022-08-03T01:17:54.982Z,4.90
2022-08-03T01:20:59.183Z,5.13
2022-08-03T01:24:07.513Z,5.43
2022-08-03T01:27:15.884Z,6.95
2022-08-03T01:30:18.166Z,5.88
2022-08-03T01:33:28.203Z,5.50
2022-08-03T01:36:35.291Z,5.18
2022-08-03T01:39:39.781Z,5.13
2022-08-03T01:42:43.501Z,4.95
2022-08-03T01:45:45.942Z,5.05
2022-08-03T01:48:49.896Z,5.75
2022-08-03T01:51:58.624Z,4.95
2022-08-03T01:55:08.187Z,5.10
2022-08-03T01:58:12.364Z,4.90
2022-08-03T02:01:16.768Z,5.25
2022-08-03T02:04:19.900Z,5.07
2022-08-03T02:07:22.719Z,4.47
2022-08-03T02:10:35.267Z,5.57
2022-08-03T02:13:39.310Z,5.10
2022-08-03T02:16:43.303Z,5.20
2022-08-03T02:19:46.724Z,4.78
2022-08-03T02:22:50.134Z,6.22
2022-08-03T02:25:57.703Z,4.97
2022-08-03T02:29:11.346Z,5.75
2022-08-03T02:32:17.903Z,5.32
2022-08-03T02:35:22.788Z,6.40
2022-08-03T02:38:29.217Z,6.00
2022-08-03T02:42:03.251Z,6.25
2022-08-03T02:45:10.685Z,5.68
2022-08-03T02:48:18.804Z,5.53
2022-08-03T02:51:22.472Z,5.82
2022-08-03T02:54:26.509Z,5.40
2022-08-03T02:57:30.740Z,5.50
2022-08-03T03:00:34.656Z,6.07
2022-08-03T03:03:44.949Z,6.00
2022-08-03T03:06:48.072Z,5.68
2022-08-03T03:09:51.097Z,6.45
2022-08-03T03:12:58.123Z,6.38
2022-08-03T03:16:03.881Z,5.60
2022-08-03T03:19:07.649Z,5.15
2022-08-03T03:22:10.919Z,5.32
2022-08-03T03:25:13.195Z,5.93
2022-08-03T03:28:15.598Z,6.60
2022-08-03T03:31:17.969Z,5.72
2022-08-03T03:34:20.650Z,6.63
2022-08-03T03:37:23.483Z,6.70
2022-08-03T03:40:25.502Z,6.88
2022-08-03T03:43:29.402Z,6.07
2022-08-03T03:46:32.304Z,6.35
2022-08-03T03:49:34.775Z,6.28
2022-08-03T03:52:36.951Z,6.63
2022-08-03T03:56:01.926Z,6.18
2022-08-03T03:59:02.243Z,6.80
2022-08-03T04:02:05.770Z,6.35
2022-08-03T04:05:27.765Z,7.50
2022-08-03T04:08:49.477Z,6.78
2022-08-03T04:11:52.828Z,6.82
2022-08-03T04:14:57.998Z,6.70
2022-08-03T04:18:01.446Z,6.63
2022-08-03T04:21:07.485Z,6.30
2022-08-03T04:24:13.495Z,6.68
2022-08-03T04:27:20.702Z,5.93
2022-08-03T04:30:23.511Z,7.53
2022-08-03T04:33:29.662Z,7.15
2022-08-03T04:36:37.221Z,7.18
2022-08-03T04:39:41.945Z,6.82
2022-08-03T04:42:44.866Z,7.15
2022-08-03T04:45:51.286Z,6.68
2022-08-03T04:48:53.775Z,6.63
2022-08-03T04:51:56.170Z,6.45
2022-08-03T04:54:58.099Z,6.18
2022-08-03T04:58:01.331Z,6.00
2022-08-03T05:01:03.379Z,7.05
2022-08-03T05:04:05.521Z,6.82
2022-08-03T05:07:11.609Z,6.80
2022-08-03T05:10:16.410Z,6.57
2022-08-03T05:13:19.414Z,6.00
2022-08-03T05:16:21.588Z,6.13
2022-08-03T05:19:23.560Z,6.78
2022-08-03T05:22:25.837Z,6.47
2022-08-03T05:25:28.185Z,7.07
2022-08-03T05:28:30.379Z,6.80
2022-08-03T05:31:32.324Z,7.03
2022-08-03T05:34:34.508Z,7.43
2022-08-03T05:37:36.832Z,6.53
2022-08-03T05:40:39.104Z,6.55
2022-08-03T05:43:48.865Z,6.20
2022-08-03T05:46:51.208Z,6.93
2022-08-03T05:49:53.136Z,6.20
2022-08-03T05:52:58.411Z,6.72
2022-08-03T05:56:03.436Z,6.00
2022-08-03T05:59:37.109Z,5.75
2022-08-03T06:02:37.844Z,5.40
2022-08-03T06:05:43.245Z,5.78
2022-08-03T06:08:56.944Z,4.80
2022-08-03T06:11:59.049Z,4.55
2022-08-03T06:15:00.983Z,4.95
2022-08-03T06:18:03.270Z,3.72
2022-08-03T06:21:09.519Z,3.85
2022-08-03T06:24:17.921Z,4.22
2022-08-03T06:27:20.505Z,3.67
2022-08-03T06:30:39.064Z,4.43
2022-08-03T06:34:30.429Z,3.85
2022-08-03T06:37:03.140Z,4.15
2022-08-03T06:40:05.742Z,3.42
2022-08-03T06:43:12.438Z,4.50
2022-08-03T06:46:14.874Z,2.92
2022-08-03T06:49:17.185Z,2.95
2022-08-03T06:52:37.112Z,3.28
2022-08-03T06:55:42.471Z,3.25
2022-08-03T06:58:44.581Z,3.70
2022-08-03T07:01:46.804Z,3.88
2022-08-03T07:04:49.366Z,4.47
2022-08-03T07:07:54.406Z,3.45
2022-08-03T07:10:56.340Z,3.40
2022-08-03T07:13:58.492Z,3.40
2022-08-03T07:17:00.416Z,3.60
2022-08-03T07:20:05.869Z,3.40
2022-08-03T07:23:07.823Z,3.78
2022-08-03T07:26:10.057Z,3.30
2022-08-03T07:29:15.293Z,3.40
2022-08-03T07:32:18.131Z,3.58
2022-08-03T07:35:22.600Z,3.83
2022-08-03T07:38:27.308Z,3.33
2022-08-03T07:41:29.256Z,3.47
2022-08-03T07:44:31.401Z,3.70
2022-08-03T07:47:35.365Z,3.42
2022-08-03T07:50:38.135Z,3.50
2022-08-03T07:53:45.997Z,3.30
2022-08-03T07:56:49.924Z,3.28
2022-08-03T07:59:57.248Z,3.20
2022-08-03T08:03:05.174Z,3.72
2022-08-03T08:06:07.139Z,3.83
2022-08-03T08:09:11.717Z,3.30
2022-08-03T08:12:15.185Z,3.83
2022-08-03T08:15:18.028Z,3.70
2022-08-03T08:18:20.031Z,3.25
2022-08-03T08:21:22.374Z,3.67
2022-08-03T08:24:24.405Z,3.63
2022-08-03T08:27:26.891Z,4.03
2022-08-03T08:30:28.969Z,3.53
2022-08-03T08:34:02.663Z,3.22
2022-08-03T08:36:56.753Z,3.60
2022-08-03T08:39:59.256Z,3.92
2022-08-03T08:43:02.304Z,3.33
2022-08-03T08:46:08.077Z,3.85
2022-08-03T08:49:12.394Z,3.45
2022-08-03T08:52:25.170Z,3.22
2022-08-03T08:55:59.116Z,3.60
2022-08-03T08:58:59.297Z,3.47
2022-08-03T09:02:01.647Z,3.47
2022-08-03T09:05:07.521Z,3.00
2022-08-03T09:08:09.812Z,3.20
2022-08-03T09:11:12.736Z,7.72
2022-08-03T09:14:39.352Z,3.38
2022-08-03T09:17:41.100Z,3.38
2022-08-03T09:20:44.440Z,3.80
2022-08-03T09:24:02.349Z,3.30
2022-08-03T09:27:11.227Z,3.95
2022-08-03T09:30:33.117Z,3.28
2022-08-03T09:33:49.811Z,2.92
2022-08-03T09:36:53.955Z,3.13
2022-08-03T09:39:56.079Z,3.20
2022-08-03T09:42:58.512Z,3.15
2022-08-03T09:46:05.584Z,3.03
2022-08-03T09:49:12.475Z,3.13
2022-08-03T09:52:33.957Z,3.17
2022-08-03T09:56:34.556Z,2.97
2022-08-03T09:59:31.952Z,3.55
2022-08-03T10:02:34.259Z,2.78
2022-08-03T10:05:36.163Z,3.30
2022-08-03T10:08:38.347Z,3.08
2022-08-03T10:11:42.624Z,3.33
2022-08-03T10:14:46.664Z,2.75
2022-08-03T10:17:49.086Z,2.70
2022-08-03T10:21:08.051Z,3.08
2022-08-03T10:24:10.825Z,3.47
2022-08-03T10:27:14.844Z,2.63
2022-08-03T10:30:17.257Z,3.58
2022-08-03T10:33:51.643Z,3.13
2022-08-03T10:36:44.452Z,3.00
2022-08-03T10:39:54.571Z,3.03
2022-08-03T10:43:03.488Z,3.40
2022-08-03T10:46:07.967Z,3.28
2022-08-03T10:49:13.812Z,3.38
2022-08-03T10:52:33.853Z,3.55
2022-08-03T10:55:59.509Z,3.03
2022-08-03T10:59:04.002Z,2.90
2022-08-03T11:02:08.379Z,2.90
2022-08-03T11:05:28.318Z,2.78
2022-08-03T11:08:34.751Z,3.10
2022-08-03T11:11:45.489Z,3.30
2022-08-03T11:14:49.145Z,2.70
2022-08-03T11:18:11.669Z,2.88
2022-08-03T11:21:13.631Z,2.95
2022-08-03T11:24:39.172Z,3.03
2022-08-03T11:27:41.196Z,3.00
2022-08-03T11:30:43.342Z,2.65
2022-08-03T11:34:04.632Z,2.90
2022-08-03T11:37:22.521Z,2.65
2022-08-03T11:40:40.230Z,2.45
2022-08-03T11:43:46.650Z,2.60
2022-08-03T11:46:49.016Z,2.70
2022-08-03T11:49:53.938Z,2.95
2022-08-03T11:52:55.877Z,2.78
2022-08-03T11:56:02.492Z,2.70
2022-08-03T11:59:20.021Z,3.00
2022-08-03T12:02:23.603Z,2.28
2022-08-03T12:05:51.373Z,2.83
2022-08-03T12:08:54.519Z,2.80
2022-08-03T12:12:00.322Z,3.42
2022-08-03T12:15:05.482Z,2.45
2022-08-03T12:18:16.433Z,2.70
2022-08-03T12:21:18.917Z,8.10
2022-08-03T12:24:20.927Z,3.33
2022-08-03T12:27:25.305Z,2.78
2022-08-03T12:30:28.103Z,2.55
2022-08-03T12:33:30.377Z,2.28
2022-08-03T12:36:34.629Z,2.65
2022-08-03T12:39:36.874Z,2.78
2022-08-03T12:42:58.852Z,3.00
2022-08-03T12:46:12.070Z,2.75
2022-08-03T12:49:15.720Z,2.65
2022-08-03T12:52:19.364Z,3.15
2022-08-03T12:55:22.516Z,2.95
2022-08-03T12:58:35.954Z,2.78
2022-08-03T13:01:38.181Z,2.70
2022-08-03T13:04:57.277Z,2.80
2022-08-03T13:07:59.464Z,2.70
2022-08-03T13:11:21.633Z,3.10
2022-08-03T13:14:23.978Z,2.63
2022-08-03T13:17:27.894Z,2.83
2022-08-03T13:20:29.992Z,3.20
2022-08-03T13:23:32.309Z,3.10
2022-08-03T13:26:34.250Z,2.75
2022-08-03T13:29:36.366Z,2.55
2022-08-03T13:32:38.806Z,2.70
2022-08-03T13:35:40.878Z,4.50
2022-08-03T13:38:42.892Z,3.53
2022-08-03T13:41:45.008Z,3.50
2022-08-03T13:44:47.309Z,3.20
2022-08-03T13:47:49.636Z,3.03
2022-08-03T13:50:53.480Z,3.38
2022-08-03T13:53:57.223Z,3.20
2022-08-03T13:57:00.784Z,3.47
2022-08-03T14:00:27.750Z,2.92
2022-08-03T14:03:30.340Z,2.97
2022-08-03T14:06:32.531Z,3.05
2022-08-03T14:09:34.442Z,3.15
2022-08-03T14:12:36.586Z,3.13
2022-08-03T14:15:38.916Z,3.08
2022-08-03T14:18:42.402Z,2.92
2022-08-03T14:21:56.901Z,2.85
2022-08-03T14:25:09.782Z,3.78
2022-08-03T14:28:12.299Z,3.67
2022-08-03T14:32:09.033Z,4.70
2022-08-03T14:34:36.475Z,3.33
2022-08-03T14:37:38.656Z,3.40
2022-08-03T14:40:40.824Z,3.10
2022-08-03T14:44:01.056Z,3.60
2022-08-03T14:47:04.271Z,3.35
2022-08-03T14:50:37.960Z,3.08
2022-08-03T14:53:30.109Z,2.47
2022-08-03T14:56:32.319Z,3.00
2022-08-03T14:59:56.377Z,3.25
2022-08-03T15:02:56.465Z,2.92
2022-08-03T15:05:58.406Z,4.80
2022-08-03T15:09:21.229Z,3.13
2022-08-03T15:12:22.495Z,2.90
2022-08-03T15:15:24.660Z,2.97
2022-08-03T15:18:26.602Z,3.05
2022-08-03T15:21:46.907Z,3.53
2022-08-03T15:24:50.064Z,3.13
2022-08-03T15:28:03.848Z,15.80
2022-08-03T15:31:06.955Z,3.80
2022-08-03T15:34:09.239Z,3.60
2022-08-03T15:37:16.354Z,3.45
2022-08-03T15:40:18.992Z,3.20
2022-08-03T15:43:22.467Z,3.17
2022-08-03T15:46:29.595Z,2.72
2022-08-03T15:49:33.079Z,3.50
2022-08-03T15:52:37.811Z,3.85
2022-08-03T15:55:40.453Z,3.38
2022-08-03T15:59:04.117Z,4.15
2022-08-03T16:05:25.612Z,2.92
2022-08-03T16:08:27.546Z,3.65
2022-08-03T16:11:29.673Z,4.20
2022-08-03T16:14:38.961Z,3.95
2022-08-03T16:17:49.084Z,3.20
2022-08-03T16:20:51.043Z,3.70
2022-08-03T16:23:53.127Z,3.17
2022-08-03T16:26:56.503Z,6.18
2022-08-03T16:29:58.652Z,4.30
2022-08-03T16:33:01.858Z,3.53
2022-08-03T16:36:04.414Z,3.65
2022-08-03T16:39:06.420Z,3.67
2022-08-03T16:42:08.734Z,4.93
2022-08-03T16:45:11.137Z,3.90
2022-08-03T16:48:13.751Z,3.80
2022-08-03T16:51:15.693Z,4.07
2022-08-03T16:54:18.712Z,4.40
2022-08-03T16:57:56.367Z,3.75
2022-08-03T17:00:48.066Z,3.85
2022-08-03T17:04:04.512Z,4.00
2022-08-03T17:07:07.812Z,4.28
2022-08-03T17:10:12.241Z,4.15
2022-08-03T17:13:20.738Z,4.68
2022-08-03T17:16:24.375Z,4.00
2022-08-03T17:19:29.503Z,4.25
2022-08-03T17:22:35.826Z,8.05
2022-08-03T17:26:02.354Z,22.77
2022-08-03T17:29:12.796Z,5.93
2022-08-03T17:32:21.367Z,4.43
2022-08-03T17:35:23.868Z,4.13
2022-08-03T17:38:26.516Z,4.25
2022-08-03T17:41:33.889Z,3.60
2022-08-03T17:44:46.169Z,3.17
2022-08-03T17:47:57.437Z,3.63
2022-08-03T17:51:03.714Z,3.40
2022-08-03T17:54:05.992Z,3.92
2022-08-03T17:58:01.365Z,3.83
2022-08-03T18:02:05.657Z,3.95
2022-08-03T18:04:55.404Z,4.20
2022-08-03T18:08:02.415Z,4.78
2022-08-03T18:11:14.357Z,4.72
2022-08-03T18:14:37.870Z,4.32
2022-08-03T18:17:55.024Z,4.18
2022-08-03T18:21:09.375Z,4.35
2022-08-03T18:24:20.019Z,4.18
2022-08-03T18:27:42.600Z,4.30
2022-08-03T18:30:53.911Z,4.20
2022-08-03T18:34:19.659Z,4.30
2022-08-03T18:37:25.104Z,4.25
2022-08-03T18:40:28.386Z,4.63
2022-08-03T18:43:46.566Z,4.50
2022-08-03T18:47:16.573Z,4.32
2022-08-03T18:50:31.947Z,4.47
2022-08-03T18:54:04.018Z,5.68
2022-08-03T18:57:13.099Z,4.88
2022-08-03T19:00:24.975Z,5.78
2022-08-03T19:03:47.059Z,5.32
2022-08-03T19:06:49.197Z,5.00
2022-08-03T19:09:55.751Z,4.70
2022-08-03T19:13:02.989Z,4.40
2022-08-03T19:16:13.055Z,10.07
2022-08-03T19:19:19.759Z,20.00
2022-08-03T19:22:23.046Z,20.77
2022-08-03T19:25:34.584Z,17.08
2022-08-03T19:28:38.254Z,15.05
2022-08-03T19:31:40.717Z,10.02
2022-08-03T19:35:03.710Z,8.23
2022-08-03T19:38:06.420Z,7.35
2022-08-03T19:41:15.061Z,5.55
2022-08-03T19:44:25.995Z,5.65
2022-08-03T19:47:35.341Z,5.50
2022-08-03T19:50:44.648Z,5.55
2022-08-03T19:53:49.747Z,5.38
2022-08-03T19:56:55.643Z,5.00
2022-08-03T19:59:59.458Z,4.78
2022-08-03T20:03:21.931Z,4.93
2022-08-03T20:06:25.590Z,5.30
2022-08-03T20:09:30.397Z,5.80
2022-08-03T20:12:39.174Z,5.65
2022-08-03T20:15:43.709Z,5.55
2022-08-03T20:18:47.579Z,6.18
2022-08-03T20:21:50.970Z,6.20
2022-08-03T20:24:56.211Z,5.97
2022-08-03T20:28:14.098Z,6.00
2022-08-03T20:31:16.773Z,6.80
2022-08-03T20:34:19.301Z,7.07
2022-08-03T20:37:21.447Z,6.50
2022-08-03T20:40:23.631Z,6.03
2022-08-03T20:43:30.114Z,6.40
2022-08-03T20:46:41.695Z,5.97
2022-08-03T20:49:51.715Z,5.90
2022-08-03T20:52:54.685Z,6.13
2022-08-03T20:56:02.323Z,6.22
2022-08-03T20:59:07.009Z,5.88
2022-08-03T21:02:19.889Z,6.30
2022-08-03T21:05:51.355Z,6.88
2022-08-03T21:09:03.785Z,6.20
2022-08-03T21:12:11.850Z,5.47
2022-08-03T21:16:12.868Z,6.50
2022-08-03T21:18:51.379Z,6.00
2022-08-03T21:21:55.910Z,6.28
2022-08-03T21:25:00.219Z,5.78
2022-08-03T21:28:05.388Z,6.93
2022-08-03T21:31:08.881Z,6.43
2022-08-03T21:34:11.108Z,6.22
2022-08-03T21:37:17.355Z,5.80
2022-08-03T21:40:19.513Z,6.28
2022-08-03T21:43:21.473Z,6.40
2022-08-03T21:46:23.958Z,6.93
2022-08-03T21:50:07.263Z,6.57
2022-08-03T21:52:51.512Z,6.35
2022-08-03T21:56:08.652Z,6.53
2022-08-03T21:59:17.571Z,6.05
2022-08-03T22:02:24.168Z,6.88
2022-08-03T22:05:42.671Z,6.22
2022-08-03T22:08:49.880Z,5.85
2022-08-03T22:11:54.175Z,6.18
2022-08-03T22:15:00.752Z,6.25
2022-08-03T22:18:04.852Z,6.40
2022-08-03T22:21:09.675Z,5.97
2022-08-03T22:24:11.941Z,6.00
2022-08-03T22:27:31.641Z,6.18
2022-08-03T22:30:34.322Z,6.55
2022-08-03T22:33:37.853Z,7.20
2022-08-03T22:36:40.845Z,7.53
2022-08-03T22:39:44.030Z,7.90
2022-08-03T22:42:49.366Z,8.63
2022-08-03T22:46:10.208Z,8.80
2022-08-03T22:49:15.287Z,8.68
2022-08-03T22:52:18.155Z,7.85
2022-08-03T22:55:25.043Z,8.40
2022-08-03T22:58:27.326Z,8.40
2022-08-03T23:01:35.013Z,8.40
2022-08-03T23:04:40.833Z,7.68
2022-08-03T23:07:44.766Z,8.60
2022-08-03T23:10:48.062Z,8.30
2022-08-03T23:13:54.067Z,8.05
2022-08-03T23:17:00.337Z,7.97
2022-08-03T23:20:06.436Z,12.82
2022-08-03T23:23:09.684Z,9.75
2022-08-03T23:26:13.521Z,8.93
2022-08-03T23:29:16.278Z,7.97
2022-08-03T23:32:20.881Z,8.20
2022-08-03T23:36:22.582Z,7.65
2022-08-03T23:39:04.850Z,7.80
2022-08-03T23:42:07.210Z,8.15
2022-08-03T23:45:11.546Z,8.57
2022-08-03T23:48:13.620Z,8.77
2022-08-03T23:51:34.463Z,8.73
2022-08-03T23:54:50.454Z,8.93
2022-08-03T23:58:10.917Z,8.32
